sensor_id;sensor_type;location;lat;lon;timestamp;P1;durP1;ratioP1;P2;durP2;ratioP2
27612;SDS011;15036;48.094;-1.690;2022-12-18T00:01:22;36.58;;;21.38;;
27612;SDS011;15036;48.094;-1.690;2022-12-18T00:03:49;38.88;;;22.15;;
27612;SDS011;15036;48.094;-1.690;2022-12-18T00:06:15;38.25;;;21.70;;
27612;SDS011;15036;48.094;-1.690;2022-12-18T00:08:42;38.67;;;21.55;;
27612;SDS011;15036;48.094;-1.690;2022-12-18T00:11:10;42.85;;;22.90;;
27612;SDS011;15036;48.094;-1.690;2022-12-18T00:13:36;38.83;;;21.85;;
27612;SDS011;15036;48.094;-1.690;2022-12-18T00:16:06;39.95;;;21.65;;
27612;SDS011;15036;48.094;-1.690;2022-12-18T00:18:34;35.42;;;20.92;;
27612;SDS011;15036;48.094;-1.690;2022-12-18T00:21:00;36.92;;;21.23;;
27612;SDS011;15036;48.094;-1.690;2022-12-18T00:23:28;36.45;;;21.10;;
27612;SDS011;15036;48.094;-1.690;2022-12-18T00:25:54;37.63;;;22.13;;
27612;SDS011;15036;48.094;-1.690;2022-12-18T00:28:23;39.58;;;23.15;;
27612;SDS011;15036;48.094;-1.690;2022-12-18T00:30:48;37.28;;;22.35;;
27612;SDS011;15036;48.094;-1.690;2022-12-18T00:33:16;36.72;;;21.25;;
27612;SDS011;15036;48.094;-1.690;2022-12-18T00:35:42;35.25;;;20.95;;
27612;SDS011;15036;48.094;-1.690;2022-12-18T00:38:07;40.88;;;21.52;;
27612;SDS011;15036;48.094;-1.690;2022-12-18T00:40:32;38.55;;;22.70;;
27612;SDS011;15036;48.094;-1.690;2022-12-18T00:42:58;39.33;;;21.83;;
27612;SDS011;15036;48.094;-1.690;2022-12-18T00:45:24;35.42;;;20.42;;
27612;SDS011;15036;48.094;-1.690;2022-12-18T00:47:54;39.85;;;22.05;;
27612;SDS011;15036;48.094;-1.690;2022-12-18T00:50:20;38.47;;;21.73;;
27612;SDS011;15036;48.094;-1.690;2022-12-18T00:52:47;38.60;;;22.15;;
27612;SDS011;15036;48.094;-1.690;2022-12-18T00:55:12;37.75;;;21.60;;
27612;SDS011;15036;48.094;-1.690;2022-12-18T00:57:38;38.35;;;21.48;;
27612;SDS011;15036;48.094;-1.690;2022-12-18T01:00:04;36.33;;;21.65;;
27612;SDS011;15036;48.094;-1.690;2022-12-18T01:02:30;39.35;;;22.30;;
27612;SDS011;15036;48.094;-1.690;2022-12-18T01:04:56;42.28;;;22.17;;
27612;SDS011;15036;48.094;-1.690;2022-12-18T01:07:21;38.72;;;21.70;;
27612;SDS011;15036;48.094;-1.690;2022-12-18T01:09:47;38.28;;;21.75;;
27612;SDS011;15036;48.094;-1.690;2022-12-18T01:12:12;37.33;;;21.63;;
27612;SDS011;15036;48.094;-1.690;2022-12-18T01:14:37;35.85;;;21.23;;
27612;SDS011;15036;48.094;-1.690;2022-12-18T01:17:03;39.40;;;21.77;;
27612;SDS011;15036;48.094;-1.690;2022-12-18T01:19:29;39.90;;;22.42;;
27612;SDS011;15036;48.094;-1.690;2022-12-18T01:21:54;40.15;;;21.50;;
27612;SDS011;15036;48.094;-1.690;2022-12-18T01:24:19;37.13;;;21.50;;
27612;SDS011;15036;48.094;-1.690;2022-12-18T01:26:45;40.17;;;21.67;;
27612;SDS011;15036;48.094;-1.690;2022-12-18T01:29:10;40.33;;;21.67;;
27612;SDS011;15036;48.094;-1.690;2022-12-18T01:31:36;36.17;;;21.10;;
27612;SDS011;15036;48.094;-1.690;2022-12-18T01:34:02;38.55;;;21.83;;
27612;SDS011;15036;48.094;-1.690;2022-12-18T01:36:30;38.38;;;21.67;;
27612;SDS011;15036;48.094;-1.690;2022-12-18T01:39:09;40.72;;;21.92;;
27612;SDS011;15036;48.094;-1.690;2022-12-18T01:41:36;37.20;;;20.77;;
27612;SDS011;15036;48.094;-1.690;2022-12-18T01:47:29;42.47;;;24.05;;
27612;SDS011;15036;48.094;-1.690;2022-12-18T01:50:11;35.78;;;21.13;;
27612;SDS011;15036;48.094;-1.690;2022-12-18T01:52:40;37.15;;;21.85;;
27612;SDS011;15036;48.094;-1.690;2022-12-18T01:55:09;36.15;;;21.17;;
27612;SDS011;15036;48.094;-1.690;2022-12-18T01:57:36;36.58;;;20.80;;
27612;SDS011;15036;48.094;-1.690;2022-12-18T02:00:06;40.53;;;21.60;;
27612;SDS011;15036;48.094;-1.690;2022-12-18T02:02:35;40.10;;;22.85;;
27612;SDS011;15036;48.094;-1.690;2022-12-18T02:05:02;38.92;;;21.35;;
27612;SDS011;15036;48.094;-1.690;2022-12-18T02:10:14;38.70;;;20.80;;
27612;SDS011;15036;48.094;-1.690;2022-12-18T02:12:52;37.20;;;20.58;;
27612;SDS011;15036;48.094;-1.690;2022-12-18T02:18:33;41.83;;;22.33;;
27612;SDS011;15036;48.094;-1.690;2022-12-18T02:24:11;35.67;;;21.20;;
27612;SDS011;15036;48.094;-1.690;2022-12-18T02:29:17;38.33;;;21.52;;
27612;SDS011;15036;48.094;-1.690;2022-12-18T02:31:53;38.28;;;22.35;;
27612;SDS011;15036;48.094;-1.690;2022-12-18T02:34:22;40.30;;;22.10;;
27612;SDS011;15036;48.094;-1.690;2022-12-18T02:36:51;39.77;;;22.23;;
27612;SDS011;15036;48.094;-1.690;2022-12-18T02:39:20;37.35;;;21.10;;
27612;SDS011;15036;48.094;-1.690;2022-12-18T02:41:47;39.60;;;21.42;;
27612;SDS011;15036;48.094;-1.690;2022-12-18T02:44:13;35.20;;;21.48;;
27612;SDS011;15036;48.094;-1.690;2022-12-18T02:49:06;37.80;;;21.73;;
27612;SDS011;15036;48.094;-1.690;2022-12-18T02:51:47;35.83;;;20.33;;
27612;SDS011;15036;48.094;-1.690;2022-12-18T02:54:23;39.20;;;21.67;;
27612;SDS011;15036;48.094;-1.690;2022-12-18T02:57:06;40.17;;;22.05;;
27612;SDS011;15036;48.094;-1.690;2022-12-18T02:59:41;37.08;;;21.30;;
27612;SDS011;15036;48.094;-1.690;2022-12-18T03:02:21;37.70;;;21.30;;
27612;SDS011;15036;48.094;-1.690;2022-12-18T03:04:55;36.72;;;21.00;;
27612;SDS011;15036;48.094;-1.690;2022-12-18T03:07:39;37.10;;;21.23;;
27612;SDS011;15036;48.094;-1.690;2022-12-18T03:10:12;37.28;;;20.58;;
27612;SDS011;15036;48.094;-1.690;2022-12-18T03:12:42;37.53;;;20.77;;
27612;SDS011;15036;48.094;-1.690;2022-12-18T03:15:14;32.30;;;19.98;;
27612;SDS011;15036;48.094;-1.690;2022-12-18T03:17:48;33.38;;;20.67;;
27612;SDS011;15036;48.094;-1.690;2022-12-18T03:20:37;36.75;;;21.17;;
27612;SDS011;15036;48.094;-1.690;2022-12-18T03:25:39;37.75;;;21.08;;
27612;SDS011;15036;48.094;-1.690;2022-12-18T03:28:13;36.97;;;20.97;;
27612;SDS011;15036;48.094;-1.690;2022-12-18T03:30:42;38.47;;;21.65;;
27612;SDS011;15036;48.094;-1.690;2022-12-18T03:33:12;37.33;;;21.30;;
27612;SDS011;15036;48.094;-1.690;2022-12-18T03:35:44;37.00;;;20.60;;
27612;SDS011;15036;48.094;-1.690;2022-12-18T03:38:10;34.78;;;19.65;;
27612;SDS011;15036;48.094;-1.690;2022-12-18T03:46:33;35.60;;;19.95;;
27612;SDS011;15036;48.094;-1.690;2022-12-18T03:49:25;36.03;;;20.25;;
27612;SDS011;15036;48.094;-1.690;2022-12-18T03:51:55;36.67;;;20.63;;
27612;SDS011;15036;48.094;-1.690;2022-12-18T03:54:23;32.65;;;19.73;;
27612;SDS011;15036;48.094;-1.690;2022-12-18T03:56:54;35.30;;;20.60;;
27612;SDS011;15036;48.094;-1.690;2022-12-18T03:59:24;35.70;;;21.40;;
27612;SDS011;15036;48.094;-1.690;2022-12-18T04:01:52;37.45;;;20.35;;
27612;SDS011;15036;48.094;-1.690;2022-12-18T04:04:20;36.17;;;19.80;;
27612;SDS011;15036;48.094;-1.690;2022-12-18T04:06:47;35.33;;;20.27;;
27612;SDS011;15036;48.094;-1.690;2022-12-18T04:09:14;34.40;;;20.10;;
27612;SDS011;15036;48.094;-1.690;2022-12-18T04:11:40;34.90;;;19.60;;
27612;SDS011;15036;48.094;-1.690;2022-12-18T04:14:08;31.92;;;19.15;;
27612;SDS011;15036;48.094;-1.690;2022-12-18T04:16:34;35.72;;;20.55;;
27612;SDS011;15036;48.094;-1.690;2022-12-18T04:18:59;36.30;;;20.45;;
27612;SDS011;15036;48.094;-1.690;2022-12-18T04:21:25;34.15;;;20.77;;
27612;SDS011;15036;48.094;-1.690;2022-12-18T04:23:50;33.85;;;19.23;;
27612;SDS011;15036;48.094;-1.690;2022-12-18T04:26:16;33.17;;;19.67;;
27612;SDS011;15036;48.094;-1.690;2022-12-18T04:28:41;34.97;;;20.42;;
27612;SDS011;15036;48.094;-1.690;2022-12-18T04:31:06;33.70;;;19.80;;
27612;SDS011;15036;48.094;-1.690;2022-12-18T04:33:32;34.22;;;19.80;;
27612;SDS011;15036;48.094;-1.690;2022-12-18T04:35:57;33.55;;;20.30;;
27612;SDS011;15036;48.094;-1.690;2022-12-18T04:38:23;39.53;;;20.45;;
27612;SDS011;15036;48.094;-1.690;2022-12-18T04:40:48;34.75;;;19.92;;
27612;SDS011;15036;48.094;-1.690;2022-12-18T04:43:13;33.40;;;19.77;;
27612;SDS011;15036;48.094;-1.690;2022-12-18T04:45:39;30.23;;;18.73;;
27612;SDS011;15036;48.094;-1.690;2022-12-18T04:48:04;36.75;;;20.45;;
27612;SDS011;15036;48.094;-1.690;2022-12-18T04:50:30;36.47;;;20.30;;
27612;SDS011;15036;48.094;-1.690;2022-12-18T04:52:56;36.00;;;20.63;;
27612;SDS011;15036;48.094;-1.690;2022-12-18T04:55:22;34.83;;;20.45;;
27612;SDS011;15036;48.094;-1.690;2022-12-18T04:57:50;33.80;;;20.42;;
27612;SDS011;15036;48.094;-1.690;2022-12-18T05:00:16;34.42;;;20.40;;
27612;SDS011;15036;48.094;-1.690;2022-12-18T05:02:41;35.70;;;20.25;;
27612;SDS011;15036;48.094;-1.690;2022-12-18T05:05:07;33.47;;;19.52;;
27612;SDS011;15036;48.094;-1.690;2022-12-18T05:07:33;35.67;;;19.65;;
27612;SDS011;15036;48.094;-1.690;2022-12-18T05:09:58;33.03;;;19.88;;
27612;SDS011;15036;48.094;-1.690;2022-12-18T05:12:24;35.13;;;19.98;;
27612;SDS011;15036;48.094;-1.690;2022-12-18T05:14:49;34.60;;;20.60;;
27612;SDS011;15036;48.094;-1.690;2022-12-18T05:17:14;34.65;;;20.55;;
27612;SDS011;15036;48.094;-1.690;2022-12-18T05:19:40;34.53;;;19.65;;
27612;SDS011;15036;48.094;-1.690;2022-12-18T05:22:06;32.90;;;19.25;;
27612;SDS011;15036;48.094;-1.690;2022-12-18T05:24:31;34.45;;;19.85;;
27612;SDS011;15036;48.094;-1.690;2022-12-18T05:26:57;33.53;;;19.90;;
27612;SDS011;15036;48.094;-1.690;2022-12-18T05:29:22;34.33;;;20.38;;
27612;SDS011;15036;48.094;-1.690;2022-12-18T05:31:48;33.92;;;19.27;;
27612;SDS011;15036;48.094;-1.690;2022-12-18T05:34:13;34.10;;;19.73;;
27612;SDS011;15036;48.094;-1.690;2022-12-18T05:36:38;34.80;;;20.10;;
27612;SDS011;15036;48.094;-1.690;2022-12-18T05:39:04;34.53;;;19.50;;
27612;SDS011;15036;48.094;-1.690;2022-12-18T05:41:29;35.92;;;19.95;;
27612;SDS011;15036;48.094;-1.690;2022-12-18T05:43:55;30.05;;;18.70;;
27612;SDS011;15036;48.094;-1.690;2022-12-18T05:46:20;31.25;;;19.05;;
27612;SDS011;15036;48.094;-1.690;2022-12-18T05:48:46;33.65;;;20.05;;
27612;SDS011;15036;48.094;-1.690;2022-12-18T05:51:12;35.00;;;18.95;;
27612;SDS011;15036;48.094;-1.690;2022-12-18T05:53:39;34.10;;;19.23;;
27612;SDS011;15036;48.094;-1.690;2022-12-18T05:56:07;33.78;;;19.05;;
27612;SDS011;15036;48.094;-1.690;2022-12-18T05:58:34;31.15;;;18.35;;
27612;SDS011;15036;48.094;-1.690;2022-12-18T06:01:07;31.50;;;19.02;;
27612;SDS011;15036;48.094;-1.690;2022-12-18T06:03:34;32.53;;;19.65;;
27612;SDS011;15036;48.094;-1.690;2022-12-18T06:06:00;34.08;;;18.67;;
27612;SDS011;15036;48.094;-1.690;2022-12-18T06:08:25;35.75;;;19.98;;
27612;SDS011;15036;48.094;-1.690;2022-12-18T06:10:51;34.72;;;19.55;;
27612;SDS011;15036;48.094;-1.690;2022-12-18T06:13:20;34.90;;;20.45;;
27612;SDS011;15036;48.094;-1.690;2022-12-18T06:15:45;36.10;;;20.33;;
27612;SDS011;15036;48.094;-1.690;2022-12-18T06:18:10;32.25;;;19.60;;
27612;SDS011;15036;48.094;-1.690;2022-12-18T06:20:36;30.60;;;18.90;;
27612;SDS011;15036;48.094;-1.690;2022-12-18T06:23:04;31.65;;;19.10;;
27612;SDS011;15036;48.094;-1.690;2022-12-18T06:25:30;31.77;;;19.33;;
27612;SDS011;15036;48.094;-1.690;2022-12-18T06:27:55;33.08;;;18.95;;
27612;SDS011;15036;48.094;-1.690;2022-12-18T06:30:21;33.50;;;19.15;;
27612;SDS011;15036;48.094;-1.690;2022-12-18T06:32:47;31.92;;;19.45;;
27612;SDS011;15036;48.094;-1.690;2022-12-18T06:35:13;33.67;;;18.92;;
27612;SDS011;15036;48.094;-1.690;2022-12-18T06:37:38;33.75;;;19.52;;
27612;SDS011;15036;48.094;-1.690;2022-12-18T06:40:04;31.65;;;18.25;;
27612;SDS011;15036;48.094;-1.690;2022-12-18T06:42:30;31.30;;;19.25;;
27612;SDS011;15036;48.094;-1.690;2022-12-18T06:44:56;31.52;;;19.63;;
27612;SDS011;15036;48.094;-1.690;2022-12-18T06:47:22;31.67;;;18.98;;
27612;SDS011;15036;48.094;-1.690;2022-12-18T06:49:47;32.20;;;18.48;;
27612;SDS011;15036;48.094;-1.690;2022-12-18T06:52:12;32.05;;;19.40;;
27612;SDS011;15036;48.094;-1.690;2022-12-18T06:54:38;31.48;;;18.92;;
27612;SDS011;15036;48.094;-1.690;2022-12-18T06:57:03;34.33;;;19.52;;
27612;SDS011;15036;48.094;-1.690;2022-12-18T06:59:29;30.08;;;18.92;;
27612;SDS011;15036;48.094;-1.690;2022-12-18T07:01:54;32.67;;;19.08;;
27612;SDS011;15036;48.094;-1.690;2022-12-18T07:04:19;34.00;;;21.10;;
27612;SDS011;15036;48.094;-1.690;2022-12-18T07:06:45;29.95;;;18.60;;
27612;SDS011;15036;48.094;-1.690;2022-12-18T07:09:10;32.05;;;20.00;;
27612;SDS011;15036;48.094;-1.690;2022-12-18T07:11:35;32.85;;;20.70;;
27612;SDS011;15036;48.094;-1.690;2022-12-18T07:14:01;34.20;;;19.48;;
27612;SDS011;15036;48.094;-1.690;2022-12-18T07:16:26;33.53;;;20.25;;
27612;SDS011;15036;48.094;-1.690;2022-12-18T07:18:54;34.88;;;20.38;;
27612;SDS011;15036;48.094;-1.690;2022-12-18T07:21:20;34.40;;;20.92;;
27612;SDS011;15036;48.094;-1.690;2022-12-18T07:23:47;34.40;;;20.35;;
27612;SDS011;15036;48.094;-1.690;2022-12-18T07:26:13;34.13;;;21.45;;
27612;SDS011;15036;48.094;-1.690;2022-12-18T07:28:41;32.80;;;20.67;;
27612;SDS011;15036;48.094;-1.690;2022-12-18T07:31:08;32.30;;;19.85;;
27612;SDS011;15036;48.094;-1.690;2022-12-18T07:33:35;32.28;;;20.23;;
27612;SDS011;15036;48.094;-1.690;2022-12-18T07:36:04;34.90;;;20.85;;
27612;SDS011;15036;48.094;-1.690;2022-12-18T07:41:00;37.35;;;20.75;;
27612;SDS011;15036;48.094;-1.690;2022-12-18T07:43:30;33.65;;;20.80;;
27612;SDS011;15036;48.094;-1.690;2022-12-18T07:45:56;35.60;;;20.67;;
27612;SDS011;15036;48.094;-1.690;2022-12-18T07:48:21;32.50;;;20.80;;
27612;SDS011;15036;48.094;-1.690;2022-12-18T07:50:46;36.38;;;21.95;;
27612;SDS011;15036;48.094;-1.690;2022-12-18T07:53:12;35.42;;;21.35;;
27612;SDS011;15036;48.094;-1.690;2022-12-18T07:55:37;36.53;;;21.23;;
27612;SDS011;15036;48.094;-1.690;2022-12-18T07:58:03;35.33;;;21.83;;
27612;SDS011;15036;48.094;-1.690;2022-12-18T08:00:29;41.17;;;22.63;;
27612;SDS011;15036;48.094;-1.690;2022-12-18T08:02:56;37.80;;;22.60;;
27612;SDS011;15036;48.094;-1.690;2022-12-18T08:05:21;34.65;;;21.83;;
27612;SDS011;15036;48.094;-1.690;2022-12-18T08:07:47;35.20;;;21.60;;
27612;SDS011;15036;48.094;-1.690;2022-12-18T08:10:12;35.45;;;22.50;;
27612;SDS011;15036;48.094;-1.690;2022-12-18T08:12:38;35.38;;;21.75;;
27612;SDS011;15036;48.094;-1.690;2022-12-18T08:15:04;38.67;;;22.35;;
27612;SDS011;15036;48.094;-1.690;2022-12-18T08:17:30;37.47;;;22.67;;
27612;SDS011;15036;48.094;-1.690;2022-12-18T08:19:56;38.22;;;21.98;;
27612;SDS011;15036;48.094;-1.690;2022-12-18T08:22:21;36.20;;;22.48;;
27612;SDS011;15036;48.094;-1.690;2022-12-18T08:24:46;37.58;;;22.25;;
27612;SDS011;15036;48.094;-1.690;2022-12-18T08:27:12;33.95;;;21.73;;
27612;SDS011;15036;48.094;-1.690;2022-12-18T08:29:37;41.22;;;24.40;;
27612;SDS011;15036;48.094;-1.690;2022-12-18T08:32:03;37.40;;;22.63;;
27612;SDS011;15036;48.094;-1.690;2022-12-18T08:34:29;38.25;;;22.60;;
27612;SDS011;15036;48.094;-1.690;2022-12-18T08:36:56;38.38;;;22.98;;
27612;SDS011;15036;48.094;-1.690;2022-12-18T08:39:21;39.30;;;23.45;;
27612;SDS011;15036;48.094;-1.690;2022-12-18T08:41:47;37.95;;;22.58;;
27612;SDS011;15036;48.094;-1.690;2022-12-18T08:44:32;37.45;;;22.27;;
27612;SDS011;15036;48.094;-1.690;2022-12-18T08:47:07;41.92;;;24.52;;
27612;SDS011;15036;48.094;-1.690;2022-12-18T08:49:33;38.90;;;22.65;;
27612;SDS011;15036;48.094;-1.690;2022-12-18T08:51:59;40.90;;;24.08;;
27612;SDS011;15036;48.094;-1.690;2022-12-18T08:54:24;42.45;;;24.48;;
27612;SDS011;15036;48.094;-1.690;2022-12-18T08:56:50;41.75;;;23.95;;
27612;SDS011;15036;48.094;-1.690;2022-12-18T08:59:16;41.35;;;24.25;;
27612;SDS011;15036;48.094;-1.690;2022-12-18T09:01:43;41.72;;;25.73;;
27612;SDS011;15036;48.094;-1.690;2022-12-18T09:04:09;43.65;;;24.33;;
27612;SDS011;15036;48.094;-1.690;2022-12-18T09:06:34;42.60;;;24.85;;
27612;SDS011;15036;48.094;-1.690;2022-12-18T09:09:00;43.15;;;25.10;;
27612;SDS011;15036;48.094;-1.690;2022-12-18T09:11:27;43.58;;;24.83;;
27612;SDS011;15036;48.094;-1.690;2022-12-18T09:13:53;43.50;;;24.60;;
27612;SDS011;15036;48.094;-1.690;2022-12-18T09:16:20;44.30;;;25.90;;
27612;SDS011;15036;48.094;-1.690;2022-12-18T09:18:47;42.65;;;26.42;;
27612;SDS011;15036;48.094;-1.690;2022-12-18T09:21:17;44.63;;;25.92;;
27612;SDS011;15036;48.094;-1.690;2022-12-18T09:23:48;44.03;;;25.65;;
27612;SDS011;15036;48.094;-1.690;2022-12-18T09:26:17;39.95;;;24.13;;
27612;SDS011;15036;48.094;-1.690;2022-12-18T09:28:43;43.03;;;25.58;;
27612;SDS011;15036;48.094;-1.690;2022-12-18T09:31:08;45.63;;;26.27;;
27612;SDS011;15036;48.094;-1.690;2022-12-18T09:33:37;46.42;;;26.58;;
27612;SDS011;15036;48.094;-1.690;2022-12-18T09:36:03;46.20;;;25.20;;
27612;SDS011;15036;48.094;-1.690;2022-12-18T09:38:33;43.58;;;25.58;;
27612;SDS011;15036;48.094;-1.690;2022-12-18T09:41:00;45.85;;;25.45;;
27612;SDS011;15036;48.094;-1.690;2022-12-18T09:43:39;45.63;;;26.10;;
27612;SDS011;15036;48.094;-1.690;2022-12-18T09:46:14;45.67;;;27.15;;
27612;SDS011;15036;48.094;-1.690;2022-12-18T09:48:45;46.03;;;26.10;;
27612;SDS011;15036;48.094;-1.690;2022-12-18T09:51:18;44.30;;;25.70;;
27612;SDS011;15036;48.094;-1.690;2022-12-18T09:53:50;45.72;;;25.77;;
27612;SDS011;15036;48.094;-1.690;2022-12-18T09:56:20;45.53;;;26.40;;
27612;SDS011;15036;48.094;-1.690;2022-12-18T09:58:57;44.35;;;25.98;;
27612;SDS011;15036;48.094;-1.690;2022-12-18T10:01:25;49.97;;;26.90;;
27612;SDS011;15036;48.094;-1.690;2022-12-18T10:03:52;54.17;;;28.42;;
27612;SDS011;15036;48.094;-1.690;2022-12-18T10:15:15;52.00;;;27.45;;
27612;SDS011;15036;48.094;-1.690;2022-12-18T10:18:02;47.85;;;27.20;;
27612;SDS011;15036;48.094;-1.690;2022-12-18T10:20:33;49.35;;;27.17;;
27612;SDS011;15036;48.094;-1.690;2022-12-18T10:25:55;37.83;;;20.55;;
27612;SDS011;15036;48.094;-1.690;2022-12-18T10:28:22;50.22;;;28.13;;
27612;SDS011;15036;48.094;-1.690;2022-12-18T10:30:49;50.47;;;28.35;;
27612;SDS011;15036;48.094;-1.690;2022-12-18T10:33:16;52.65;;;28.33;;
27612;SDS011;15036;48.094;-1.690;2022-12-18T10:35:47;50.38;;;28.30;;
27612;SDS011;15036;48.094;-1.690;2022-12-18T10:40:52;54.05;;;28.92;;
27612;SDS011;15036;48.094;-1.690;2022-12-18T10:43:22;53.65;;;29.75;;
27612;SDS011;15036;48.094;-1.690;2022-12-18T10:45:58;55.25;;;28.02;;
27612;SDS011;15036;48.094;-1.690;2022-12-18T10:48:24;48.80;;;28.55;;
27612;SDS011;15036;48.094;-1.690;2022-12-18T10:50:50;54.70;;;29.08;;
27612;SDS011;15036;48.094;-1.690;2022-12-18T10:53:21;58.95;;;28.95;;
27612;SDS011;15036;48.094;-1.690;2022-12-18T10:55:49;55.40;;;29.63;;
27612;SDS011;15036;48.094;-1.690;2022-12-18T10:58:29;55.20;;;30.27;;
27612;SDS011;15036;48.094;-1.690;2022-12-18T11:01:05;36.58;;;21.75;;
27612;SDS011;15036;48.094;-1.690;2022-12-18T11:03:35;53.78;;;29.27;;
27612;SDS011;15036;48.094;-1.690;2022-12-18T11:06:12;55.15;;;29.20;;
27612;SDS011;15036;48.094;-1.690;2022-12-18T11:08:39;53.95;;;30.02;;
27612;SDS011;15036;48.094;-1.690;2022-12-18T11:11:07;53.78;;;30.40;;
27612;SDS011;15036;48.094;-1.690;2022-12-18T11:13:47;50.47;;;29.58;;
27612;SDS011;15036;48.094;-1.690;2022-12-18T11:16:28;51.67;;;29.17;;
27612;SDS011;15036;48.094;-1.690;2022-12-18T11:19:13;48.47;;;28.83;;
27612;SDS011;15036;48.094;-1.690;2022-12-18T11:21:48;49.80;;;29.58;;
27612;SDS011;15036;48.094;-1.690;2022-12-18T11:24:22;52.35;;;31.92;;
27612;SDS011;15036;48.094;-1.690;2022-12-18T11:26:49;47.70;;;30.83;;
27612;SDS011;15036;48.094;-1.690;2022-12-18T11:29:22;49.08;;;28.67;;
27612;SDS011;15036;48.094;-1.690;2022-12-18T11:31:52;48.72;;;28.75;;
27612;SDS011;15036;48.094;-1.690;2022-12-18T11:34:45;48.10;;;28.83;;
27612;SDS011;15036;48.094;-1.690;2022-12-18T11:37:13;47.60;;;28.40;;
27612;SDS011;15036;48.094;-1.690;2022-12-18T11:39:51;49.38;;;28.88;;
27612;SDS011;15036;48.094;-1.690;2022-12-18T11:42:24;46.17;;;28.35;;
27612;SDS011;15036;48.094;-1.690;2022-12-18T11:45:01;46.15;;;28.15;;
27612;SDS011;15036;48.094;-1.690;2022-12-18T11:47:49;44.45;;;27.83;;
27612;SDS011;15036;48.094;-1.690;2022-12-18T11:50:23;46.78;;;29.20;;
27612;SDS011;15036;48.094;-1.690;2022-12-18T11:52:51;43.88;;;27.35;;
27612;SDS011;15036;48.094;-1.690;2022-12-18T11:55:27;43.17;;;26.70;;
27612;SDS011;15036;48.094;-1.690;2022-12-18T12:04:58;41.65;;;26.20;;
27612;SDS011;15036;48.094;-1.690;2022-12-18T12:10:08;45.05;;;27.25;;
27612;SDS011;15036;48.094;-1.690;2022-12-18T12:39:44;47.00;;;29.48;;
27612;SDS011;15036;48.094;-1.690;2022-12-18T12:45:38;46.25;;;29.05;;
27612;SDS011;15036;48.094;-1.690;2022-12-18T12:48:05;43.08;;;28.20;;
27612;SDS011;15036;48.094;-1.690;2022-12-18T12:50:40;48.22;;;31.13;;
27612;SDS011;15036;48.094;-1.690;2022-12-18T12:53:07;50.55;;;30.90;;
27612;SDS011;15036;48.094;-1.690;2022-12-18T12:55:40;52.65;;;30.80;;
27612;SDS011;15036;48.094;-1.690;2022-12-18T12:58:14;51.60;;;31.63;;
27612;SDS011;15036;48.094;-1.690;2022-12-18T13:09:16;49.88;;;32.33;;
27612;SDS011;15036;48.094;-1.690;2022-12-18T13:11:42;51.30;;;31.27;;
27612;SDS011;15036;48.094;-1.690;2022-12-18T13:14:30;50.53;;;32.00;;
27612;SDS011;15036;48.094;-1.690;2022-12-18T13:19:47;51.45;;;33.00;;
27612;SDS011;15036;48.094;-1.690;2022-12-18T13:22:22;53.28;;;35.83;;
27612;SDS011;15036;48.094;-1.690;2022-12-18T13:24:50;52.05;;;32.83;;
27612;SDS011;15036;48.094;-1.690;2022-12-18T13:30:11;49.08;;;31.75;;
27612;SDS011;15036;48.094;-1.690;2022-12-18T13:48:21;45.03;;;29.38;;
27612;SDS011;15036;48.094;-1.690;2022-12-18T13:50:59;50.67;;;32.95;;
27612;SDS011;15036;48.094;-1.690;2022-12-18T13:54:13;44.90;;;30.38;;
27612;SDS011;15036;48.094;-1.690;2022-12-18T13:56:21;43.00;;;29.60;;
27612;SDS011;15036;48.094;-1.690;2022-12-18T14:01:58;42.53;;;29.27;;
27612;SDS011;15036;48.094;-1.690;2022-12-18T14:04:26;41.92;;;27.95;;
27612;SDS011;15036;48.094;-1.690;2022-12-18T14:06:57;43.08;;;28.80;;
27612;SDS011;15036;48.094;-1.690;2022-12-18T14:09:34;43.88;;;29.13;;
27612;SDS011;15036;48.094;-1.690;2022-12-18T14:12:02;43.63;;;29.65;;
27612;SDS011;15036;48.094;-1.690;2022-12-18T14:14:47;42.53;;;29.00;;
27612;SDS011;15036;48.094;-1.690;2022-12-18T14:17:15;37.47;;;25.95;;
27612;SDS011;15036;48.094;-1.690;2022-12-18T14:19:46;38.67;;;26.38;;
27612;SDS011;15036;48.094;-1.690;2022-12-18T14:22:15;41.90;;;27.05;;
27612;SDS011;15036;48.094;-1.690;2022-12-18T14:24:42;37.47;;;25.88;;
27612;SDS011;15036;48.094;-1.690;2022-12-18T14:27:24;35.55;;;25.58;;
27612;SDS011;15036;48.094;-1.690;2022-12-18T14:29:50;41.30;;;27.42;;
27612;SDS011;15036;48.094;-1.690;2022-12-18T14:32:17;42.17;;;27.83;;
27612;SDS011;15036;48.094;-1.690;2022-12-18T14:34:53;40.83;;;27.15;;
27612;SDS011;15036;48.094;-1.690;2022-12-18T14:37:21;42.72;;;28.15;;
27612;SDS011;15036;48.094;-1.690;2022-12-18T14:39:52;42.90;;;28.08;;
27612;SDS011;15036;48.094;-1.690;2022-12-18T14:42:19;41.35;;;27.63;;
27612;SDS011;15036;48.094;-1.690;2022-12-18T14:44:44;43.95;;;29.40;;
27612;SDS011;15036;48.094;-1.690;2022-12-18T14:47:13;40.97;;;28.02;;
27612;SDS011;15036;48.094;-1.690;2022-12-18T14:49:40;41.08;;;28.65;;
27612;SDS011;15036;48.094;-1.690;2022-12-18T14:52:23;41.97;;;28.13;;
27612;SDS011;15036;48.094;-1.690;2022-12-18T14:54:53;40.45;;;27.52;;
27612;SDS011;15036;48.094;-1.690;2022-12-18T14:57:21;42.97;;;28.65;;
27612;SDS011;15036;48.094;-1.690;2022-12-18T14:59:49;42.70;;;29.60;;
27612;SDS011;15036;48.094;-1.690;2022-12-18T15:02:20;41.25;;;28.73;;
27612;SDS011;15036;48.094;-1.690;2022-12-18T15:05:03;42.67;;;29.30;;
27612;SDS011;15036;48.094;-1.690;2022-12-18T15:07:45;40.50;;;28.33;;
27612;SDS011;15036;48.094;-1.690;2022-12-18T15:10:21;41.38;;;27.30;;
27612;SDS011;15036;48.094;-1.690;2022-12-18T15:25:58;37.42;;;26.17;;
27612;SDS011;15036;48.094;-1.690;2022-12-18T15:28:32;37.15;;;25.35;;
27612;SDS011;15036;48.094;-1.690;2022-12-18T15:33:35;37.47;;;27.60;;
27612;SDS011;15036;48.094;-1.690;2022-12-18T15:36:09;36.22;;;25.60;;
27612;SDS011;15036;48.094;-1.690;2022-12-18T15:38:36;37.22;;;24.70;;
27612;SDS011;15036;48.094;-1.690;2022-12-18T15:41:02;39.63;;;25.55;;
27612;SDS011;15036;48.094;-1.690;2022-12-18T15:43:28;36.15;;;24.55;;
27612;SDS011;15036;48.094;-1.690;2022-12-18T15:46:06;34.70;;;24.35;;
27612;SDS011;15036;48.094;-1.690;2022-12-18T15:48:43;33.53;;;23.20;;
27612;SDS011;15036;48.094;-1.690;2022-12-18T15:51:28;35.70;;;23.40;;
27612;SDS011;15036;48.094;-1.690;2022-12-18T15:53:58;35.42;;;24.08;;
27612;SDS011;15036;48.094;-1.690;2022-12-18T15:56:26;32.05;;;22.50;;
27612;SDS011;15036;48.094;-1.690;2022-12-18T15:59:12;32.78;;;21.85;;
27612;SDS011;15036;48.094;-1.690;2022-12-18T16:01:43;28.98;;;21.42;;
27612;SDS011;15036;48.094;-1.690;2022-12-18T16:04:11;31.23;;;22.10;;
27612;SDS011;15036;48.094;-1.690;2022-12-18T16:06:37;28.25;;;20.73;;
27612;SDS011;15036;48.094;-1.690;2022-12-18T16:09:03;31.08;;;21.10;;
27612;SDS011;15036;48.094;-1.690;2022-12-18T16:11:29;27.02;;;20.63;;
27612;SDS011;15036;48.094;-1.690;2022-12-18T16:14:12;29.25;;;19.55;;
27612;SDS011;15036;48.094;-1.690;2022-12-18T16:16:40;27.17;;;19.70;;
27612;SDS011;15036;48.094;-1.690;2022-12-18T16:19:06;27.58;;;19.58;;
27612;SDS011;15036;48.094;-1.690;2022-12-18T16:21:32;25.27;;;19.02;;
27612;SDS011;15036;48.094;-1.690;2022-12-18T16:23:57;26.70;;;18.95;;
27612;SDS011;15036;48.094;-1.690;2022-12-18T16:26:23;28.52;;;19.17;;
27612;SDS011;15036;48.094;-1.690;2022-12-18T16:28:48;25.80;;;18.60;;
27612;SDS011;15036;48.094;-1.690;2022-12-18T16:31:13;26.17;;;18.70;;